Time;durP1;ratioP1;P1;durP2;ratioP2;P2;SDS_P1;SDS_P2;PMS_P1;PMS_P2;Temp;Humidity;BMP_temperature;BMP_pressure;BME280_temperature;BME280_humidity;BME280_pressure;Samples;Min_cycle;Max_cycle;Signal;HPM_P1;HPM_P2
2021/03/29 00:00:28;;;;;;;15.75;4.25;;;;;;;9.11;76.75;102492.66;5002360;28;20037;-78
2021/03/29 00:02:54;;;;;;;18.08;4.03;;;;;;;9.13;76.21;102493.41;5005851;28;20816;-77
2021/03/29 00:05:22;;;;;;;17.90;4.70;;;;;;;9.14;76.39;102488.09;5007941;28;20136;-76
2021/03/29 00:07:55;;;;;;;11.32;4.00;;;;;;;9.11;76.76;102482.19;5001424;28;20042;-78
2021/03/29 00:10:21;;;;;;;13.45;3.88;;;;;;;9.10;76.92;102486.59;5003618;28;20041;-77
2021/03/29 00:12:49;;;;;;;19.27;3.78;;;;;;;9.10;77.59;102481.34;4969134;28;20042;-76
2021/03/29 00:15:26;;;;;;;16.92;4.30;;;;;;;9.04;77.77;102476.50;4973040;28;20576;-75
2021/03/29 00:17:52;;;;;;;15.85;4.13;;;;;;;8.99;78.55;102475.09;5008298;28;20048;-75
2021/03/29 00:20:22;;;;;;;18.00;3.83;;;;;;;8.98;77.97;102468.19;4972871;28;20065;-78
2021/03/29 00:22:48;;;;;;;12.80;3.97;;;;;;;9.01;77.61;102468.84;4974297;28;20061;-78
2021/03/29 00:25:16;;;;;;;13.45;4.18;;;;;;;9.00;78.59;102463.69;4988355;28;20125;-77
2021/03/29 00:27:42;;;;;;;17.02;3.67;;;;;;;8.99;78.53;102456.78;4992913;28;20041;-76
2021/03/29 00:30:11;;;;;;;13.02;3.60;;;;;;;8.92;78.54;102453.69;4993364;28;20049;-77
2021/03/29 00:32:38;;;;;;;13.77;3.70;;;;;;;8.93;78.55;102443.13;4999552;28;20476;-76
2021/03/29 00:35:05;;;;;;;13.15;3.42;;;;;;;9.00;78.15;102450.59;4975077;28;20373;-78
2021/03/29 00:37:32;;;;;;;17.25;3.75;;;;;;;9.00;78.87;102446.19;4989280;28;20041;-76
2021/03/29 00:39:59;;;;;;;18.92;3.70;;;;;;;8.93;79.18;102443.13;4979808;28;20051;-77
2021/03/29 00:42:26;;;;;;;10.93;3.50;;;;;;;8.96;78.73;102437.69;4989893;28;20085;-76
2021/03/29 00:44:52;;;;;;;12.40;4.22;;;;;;;8.96;78.49;102437.69;5016880;28;20042;-78
2021/03/29 00:47:18;;;;;;;15.32;3.70;;;;;;;8.91;78.96;102431.91;5025601;28;20129;-77
2021/03/29 00:49:44;;;;;;;13.25;2.95;;;;;;;8.88;78.35;102439.13;5008588;28;20076;-76
2021/03/29 00:52:10;;;;;;;9.27;3.40;;;;;;;8.93;78.58;102444.91;5006928;28;20065;-78
2021/03/29 00:54:38;;;;;;;15.52;3.95;;;;;;;8.88;79.15;102450.41;5009675;28;20226;-77
2021/03/29 00:57:05;;;;;;;16.92;4.10;;;;;;;8.98;77.92;102457.72;4995046;28;20092;-77
2021/03/29 00:59:31;;;;;;;14.05;3.42;;;;;;;8.89;78.73;102440.78;4995182;28;20076;-78
2021/03/29 01:01:57;;;;;;;13.25;3.28;;;;;;;8.82;78.26;102440.34;5009967;28;20046;-77
2021/03/29 01:04:23;;;;;;;9.18;3.50;;;;;;;8.97;77.99;102459.50;5010086;28;20069;-78
2021/03/29 01:06:51;;;;;;;15.40;4.13;;;;;;;8.92;78.16;102456.31;4994854;28;20099;-78
2021/03/29 01:09:20;;;;;;;17.83;3.90;;;;;;;8.91;78.02;102447.63;4977510;28;20045;-78
2021/03/29 01:11:53;;;;;;;16.85;3.88;;;;;;;8.95;77.76;102448.28;5019686;28;20038;-75
2021/03/29 01:14:23;;;;;;;13.65;3.90;;;;;;;8.96;77.66;102442.09;5011839;28;20034;-74
2021/03/29 01:16:57;;;;;;;11.18;3.88;;;;;;;8.97;77.52;102438.56;5000386;28;20129;-76
2021/03/29 01:19:45;;;;;;;17.00;3.83;;;;;;;9.01;77.26;102444.44;4993754;28;20149;-77
2021/03/29 01:22:12;;;;;;;15.50;4.03;;;;;;;9.02;76.75;102441.72;4976148;28;20088;-76
2021/03/29 01:25:06;;;;;;;14.82;4.20;;;;;;;9.00;76.96;102440.13;5000553;28;20042;-78
2021/03/29 01:27:36;;;;;;;16.85;4.07;;;;;;;9.00;76.70;102443.59;4994875;28;20038;-78
2021/03/29 01:30:06;;;;;;;14.20;3.65;;;;;;;9.01;76.84;102442.66;4978816;28;20087;-78
2021/03/29 01:32:33;;;;;;;13.25;3.92;;;;;;;9.02;77.27;102436.47;5009204;28;20504;-78
2021/03/29 01:35:00;;;;;;;11.70;3.78;;;;;;;9.08;76.65;102443.97;5006302;28;20107;-79
2021/03/29 01:37:28;;;;;;;12.40;4.05;;;;;;;9.07;76.52;102439.66;5007336;28;20037;-79
2021/03/29 01:39:55;;;;;;;12.20;4.13;;;;;;;9.09;76.37;102440.41;4999353;28;20448;-78
2021/03/29 01:42:22;;;;;;;15.73;4.07;;;;;;;9.07;76.42;102444.06;5018404;28;20045;-78
2021/03/29 01:44:49;;;;;;;15.55;4.18;;;;;;;9.06;76.24;102435.38;4989812;28;20042;-79
2021/03/29 01:47:15;;;;;;;11.60;4.47;;;;;;;9.05;76.16;102438.09;4997121;28;20046;-76
2021/03/29 01:49:41;;;;;;;20.70;4.90;;;;;;;9.00;76.42;102440.13;5013157;28;20048;-78
2021/03/29 01:52:08;;;;;;;14.13;4.80;;;;;;;9.02;76.74;102444.31;5003650;28;20046;-78
2021/03/29 01:54:34;;;;;;;15.43;4.30;;;;;;;9.04;76.51;102445.09;5011649;28;20042;-77
2021/03/29 01:57:18;;;;;;;12.38;3.67;;;;;;;9.15;75.20;102447.03;5011369;28;20125;-77
2021/03/29 01:59:44;;;;;;;11.07;4.22;;;;;;;9.07;76.10;102446.69;5011006;28;20065;-76
2021/03/29 02:02:10;;;;;;;11.85;4.40;;;;;;;9.09;75.93;102444.81;5010342;28;20086;-76
2021/03/29 02:04:36;;;;;;;10.82;4.18;;;;;;;9.10;76.08;102442.09;5015635;28;20390;-77
2021/03/29 02:07:03;;;;;;;10.98;4.00;;;;;;;9.11;75.71;102445.53;5020977;28;20516;-77
2021/03/29 02:09:30;;;;;;;15.85;4.53;;;;;;;9.09;75.50;102437.78;4993676;28;20041;-77
2021/03/29 02:11:57;;;;;;;12.82;3.75;;;;;;;9.07;75.15;102423.94;5013220;28;20224;-77
2021/03/29 02:14:27;;;;;;;16.27;4.82;;;;;;;9.10;75.43;102418.53;5002245;28;20547;-78
2021/03/29 02:16:56;;;;;;;13.38;4.35;;;;;;;9.15;74.92;102416.47;4988680;28;20053;-77
2021/03/29 02:19:23;;;;;;;15.68;3.92;;;;;;;9.07;74.93;102408.25;5012761;28;20045;-79
2021/03/29 02:21:50;;;;;;;14.52;4.20;;;;;;;9.06;75.86;102418.81;5029551;28;20622;-81
2021/03/29 02:24:17;;;;;;;14.43;4.40;;;;;;;9.03;75.03;102411.16;5026772;28;20042;-78
2021/03/29 02:26:44;;;;;;;16.13;4.28;;;;;;;9.03;74.81;102409.38;5011370;28;20141;-77
2021/03/29 02:29:10;;;;;;;13.38;3.75;;;;;;;9.09;74.50;102414.22;5010272;28;20069;-78
2021/03/29 02:31:36;;;;;;;19.17;3.97;;;;;;;9.11;74.80;102406.28;4993109;28;20033;-77
2021/03/29 02:34:03;;;;;;;13.45;4.00;;;;;;;9.10;74.61;102417.69;5018495;28;20397;-78
2021/03/29 02:36:29;;;;;;;15.65;4.35;;;;;;;9.07;74.80;102407.41;5024797;28;20049;-79
2021/03/29 02:38:56;;;;;;;14.73;4.30;;;;;;;9.05;74.69;102411.91;4998944;28;20053;-75
2021/03/29 02:41:32;;;;;;;16.13;4.45;;;;;;;9.06;75.30;102413.56;5023635;28;20715;-79
2021/03/29 02:44:00;;;;;;;19.52;3.95;;;;;;;9.00;75.26;102409.56;5035571;28;20045;-79
2021/03/29 02:46:31;;;;;;;14.07;3.67;;;;;;;9.07;74.72;102420.50;5006384;28;20045;-82
2021/03/29 02:48:59;;;;;;;16.67;4.22;;;;;;;9.07;75.24;102413.47;5020768;28;20046;-78
2021/03/29 02:51:25;;;;;;;17.10;4.13;;;;;;;9.14;74.06;102416.56;5024069;28;20628;-80
2021/03/29 02:53:57;;;;;;;10.13;3.63;;;;;;;9.16;74.38;102418.13;5005264;28;20054;-77
2021/03/29 02:56:26;;;;;;;17.92;4.35;;;;;;;9.13;74.15;102413.09;5013043;28;20037;-75
2021/03/29 02:58:56;;;;;;;15.00;4.45;;;;;;;9.10;74.53;102413.31;5017417;28;20080;-75
2021/03/29 03:01:28;;;;;;;9.95;4.18;;;;;;;9.15;74.33;102415.63;4992260;28;20050;-77
2021/03/29 03:03:54;;;;;;;15.63;4.10;;;;;;;9.06;74.75;102414.44;5005031;28;20050;-78
2021/03/29 03:06:26;;;;;;;13.77;4.50;;;;;;;9.11;74.12;102417.59;5009176;28;20042;-74
2021/03/29 03:08:52;;;;;;;15.52;4.70;;;;;;;9.07;74.76;102408.25;5003393;28;20462;-77
2021/03/29 03:11:18;;;;;;;10.73;3.63;;;;;;;9.18;73.83;102414.59;5011263;28;20053;-76
2021/03/29 03:13:45;;;;;;;12.18;3.75;;;;;;;9.19;73.45;102408.41;4983938;28;20422;-77
2021/03/29 03:16:11;;;;;;;16.17;4.40;;;;;;;9.27;72.76;102404.38;5008901;28;20048;-78
2021/03/29 03:18:41;;;;;;;14.60;4.55;;;;;;;9.25;73.22;102408.88;5013797;28;20042;-79
2021/03/29 03:21:07;;;;;;;13.93;4.47;;;;;;;9.26;73.46;102412.31;4975822;28;20077;-75
2021/03/29 03:23:33;;;;;;;15.60;4.20;;;;;;;9.19;73.58;102404.00;4986242;28;20049;-77
2021/03/29 03:26:04;;;;;;;13.93;3.83;;;;;;;9.37;72.40;102411.66;5002042;28;20045;-76
2021/03/29 03:28:29;;;;;;;16.77;3.78;;;;;;;9.34;72.91;102408.28;5017945;28;20130;-78
2021/03/29 03:30:57;;;;;;;13.23;3.65;;;;;;;9.36;72.86;102405.56;4975446;28;21643;-76
2021/03/29 03:33:27;;;;;;;12.48;3.95;;;;;;;9.27;72.72;102422.72;5008338;28;20049;-77
2021/03/29 03:35:54;;;;;;;10.38;3.78;;;;;;;9.30;72.95;102419.03;5010594;28;20114;-75
2021/03/29 03:38:24;;;;;;;9.48;3.70;;;;;;;9.33;72.58;102424.09;5013359;28;20045;-77
2021/03/29 03:40:55;;;;;;;12.93;3.83;;;;;;;9.30;72.24;102419.88;5007440;28;20057;-78
2021/03/29 03:43:24;;;;;;;15.38;4.53;;;;;;;9.36;72.35;102421.28;5007320;28;20065;-75
2021/03/29 03:45:53;;;;;;;8.02;3.25;;;;;;;9.29;73.60;102426.06;4991283;28;20061;-77
2021/03/29 03:48:21;;;;;;;19.33;4.15;;;;;;;9.25;73.59;102421.97;5008886;28;20682;-77
2021/03/29 03:50:48;;;;;;;11.95;4.15;;;;;;;9.29;73.04;102420.84;5007121;28;20346;-77
2021/03/29 03:53:15;;;;;;;12.15;4.10;;;;;;;9.24;73.89;102430.75;5008155;28;20141;-76
2021/03/29 03:55:41;;;;;;;9.30;3.92;;;;;;;9.25;73.33;102428.97;5007375;28;20053;-77
2021/03/29 03:58:10;;;;;;;16.75;3.88;;;;;;;9.23;73.90;102426.47;4974223;28;20054;-77
2021/03/29 04:00:35;;;;;;;11.90;4.55;;;;;;;9.15;74.65;102421.72;4999995;28;20257;-77
2021/03/29 04:03:01;;;;;;;14.68;3.97;;;;;;;9.19;73.69;102422.34;5015255;28;20550;-77
2021/03/29 04:05:27;;;;;;;13.80;3.97;;;;;;;9.13;73.78;102420.94;5009440;28;20041;-75
2021/03/29 04:07:55;;;;;;;13.55;3.85;;;;;;;9.12;74.02;102421.91;5013240;28;20057;-75
2021/03/29 04:10:23;;;;;;;18.02;4.15;;;;;;;9.13;73.26;102422.72;4986998;28;20042;-77
2021/03/29 04:12:53;;;;;;;13.10;3.97;;;;;;;9.23;73.01;102426.47;5015717;28;20045;-77
2021/03/29 04:15:20;;;;;;;16.55;3.97;;;;;;;9.24;73.41;102428.13;5020919;28;20088;-76
2021/03/29 04:17:46;;;;;;;18.75;4.28;;;;;;;9.23;73.21;102429.09;5007276;28;20038;-76
2021/03/29 04:20:12;;;;;;;12.10;3.90;;;;;;;9.23;72.97;102429.09;4974234;28;20704;-80
2021/03/29 04:22:38;;;;;;;13.27;3.92;;;;;;;9.24;72.95;102430.75;4974868;28;20053;-79
2021/03/29 04:25:06;;;;;;;10.18;3.75;;;;;;;9.27;72.28;102437.59;4989437;28;20144;-78
2021/03/29 04:27:31;;;;;;;15.32;4.70;;;;;;;9.24;72.19;102430.75;4991016;28;20492;-75
2021/03/29 04:29:57;;;;;;;13.23;4.00;;;;;;;9.30;72.32;102443.44;4994225;28;20042;-76
2021/03/29 04:32:23;;;;;;;11.65;3.95;;;;;;;9.26;72.92;102452.44;4995489;28;20160;-76
2021/03/29 04:34:48;;;;;;;15.18;4.20;;;;;;;9.26;72.65;102443.75;5010279;28;20053;-76
2021/03/29 04:37:14;;;;;;;14.45;3.88;;;;;;;9.31;72.21;102442.53;5006134;28;20049;-76
2021/03/29 04:39:39;;;;;;;12.73;3.88;;;;;;;9.31;72.26;102436.44;5011264;28;20046;-78
2021/03/29 04:42:05;;;;;;;12.27;3.95;;;;;;;9.22;72.22;102427.38;4998807;28;20543;-76
2021/03/29 04:44:31;;;;;;;15.00;4.00;;;;;;;9.18;73.57;102433.75;4979132;28;20037;-78
2021/03/29 04:46:56;;;;;;;17.58;3.95;;;;;;;9.15;73.19;102432.19;4979248;28;20053;-76
2021/03/29 04:49:22;;;;;;;15.35;3.95;;;;;;;9.16;72.74;102428.63;5011368;28;20052;-75
2021/03/29 04:51:47;;;;;;;11.68;3.92;;;;;;;9.27;71.96;102433.19;4994498;28;20451;-76
2021/03/29 04:54:13;;;;;;;13.93;3.70;;;;;;;9.11;73.13;102425.44;4995160;28;20045;-78
2021/03/29 04:56:39;;;;;;;15.13;4.38;;;;;;;9.10;73.69;102428.16;4990916;28;20038;-76
2021/03/29 04:59:04;;;;;;;19.05;4.55;;;;;;;9.11;73.10;102424.59;4998862;28;20150;-76
2021/03/29 05:01:30;;;;;;;11.48;3.65;;;;;;;9.07;73.85;102420.50;5002878;28;20054;-77
2021/03/29 05:03:55;;;;;;;12.65;3.60;;;;;;;9.02;74.42;102418.16;4999761;28;20045;-76
2021/03/29 05:06:21;;;;;;;16.80;4.40;;;;;;;9.01;74.01;102423.50;5015596;28;20133;-77
2021/03/29 05:08:46;;;;;;;8.90;3.53;;;;;;;8.99;74.52;102435.84;5001277;28;20116;-78
2021/03/29 05:11:12;;;;;;;13.15;3.70;;;;;;;8.96;73.57;102439.47;5009798;28;20100;-77
2021/03/29 05:13:38;;;;;;;13.05;3.85;;;;;;;9.03;73.65;102437.34;5016470;28;20056;-75
2021/03/29 05:16:04;;;;;;;14.93;3.83;;;;;;;9.03;73.64;102446.03;5019079;28;20496;-79
2021/03/29 05:18:29;;;;;;;12.57;3.38;;;;;;;8.98;73.80;102434.97;5011310;28;20042;-78
2021/03/29 05:20:55;;;;;;;13.20;3.80;;;;;;;9.02;72.92;102449.56;5017100;28;20049;-76
2021/03/29 05:23:21;;;;;;;14.13;3.65;;;;;;;8.98;73.80;102452.47;4990558;28;20046;-77
2021/03/29 05:25:47;;;;;;;13.43;4.10;;;;;;;9.06;73.32;102455.44;4992978;28;20045;-77
2021/03/29 05:28:13;;;;;;;7.72;2.95;;;;;;;9.16;72.25;102448.72;5007720;28;20060;-78
2021/03/29 05:30:39;;;;;;;12.00;3.42;;;;;;;9.05;73.00;102427.59;5014522;28;20038;-78
2021/03/29 05:33:05;;;;;;;14.68;3.75;;;;;;;9.09;71.54;102448.25;5000437;28;20061;-80
2021/03/29 05:35:31;;;;;;;16.30;4.07;;;;;;;9.13;72.41;102438.44;5013536;28;20057;-78
2021/03/29 05:37:56;;;;;;;12.05;3.83;;;;;;;9.18;71.77;102444.22;5014902;28;20084;-78
2021/03/29 05:40:22;;;;;;;15.30;3.20;;;;;;;9.16;71.63;102435.63;5015785;28;20045;-76
2021/03/29 05:42:50;;;;;;;12.88;3.88;;;;;;;9.18;71.77;102438.16;4993660;28;20060;-77
2021/03/29 05:45:16;;;;;;;17.38;3.58;;;;;;;9.25;70.36;102439.44;4989412;28;20508;-76
2021/03/29 05:47:42;;;;;;;11.05;3.33;;;;;;;9.29;70.88;102447.03;5016492;28;20076;-78
2021/03/29 05:50:11;;;;;;;13.07;3.58;;;;;;;9.29;71.05;102443.56;5011609;28;20046;-77
2021/03/29 05:52:37;;;;;;;9.98;2.90;;;;;;;9.26;71.54;102438.50;5013426;28;20511;-76
2021/03/29 05:55:07;;;;;;;13.32;3.70;;;;;;;9.28;71.77;102441.88;5007085;28;20042;-76
2021/03/29 06:00:36;;;;;;;15.00;3.30;;;;;;;9.36;72.08;102465.78;5007464;28;20084;-80
2021/03/29 06:03:21;;;;;;;13.27;3.33;;;;;;;9.43;71.35;102456.63;4977407;28;20057;-76
2021/03/29 06:05:57;;;;;;;18.88;3.72;;;;;;;9.46;71.97;102460.84;5006014;28;20034;-76
2021/03/29 06:08:23;;;;;;;14.10;3.10;;;;;;;9.46;71.19;102459.06;5015808;28;20041;-76
2021/03/29 06:10:53;;;;;;;14.32;3.70;;;;;;;9.51;71.40;102461.38;4991213;28;20041;-76
2021/03/29 06:13:24;;;;;;;14.25;3.33;;;;;;;9.53;70.23;102454.25;5002221;28;20049;-79
2021/03/29 06:16:10;;;;;;;13.38;3.42;;;;;;;9.50;71.79;102451.84;5009458;28;20872;-79
2021/03/29 06:18:37;;;;;;;13.57;3.58;;;;;;;9.49;71.21;102444.91;4977405;28;20057;-76
2021/03/29 06:21:06;;;;;;;12.48;3.17;;;;;;;9.49;70.67;102450.16;4991851;28;20277;-77
2021/03/29 06:23:32;;;;;;;12.60;3.28;;;;;;;9.46;71.00;102450.38;4983835;28;20124;-79
2021/03/29 06:26:17;;;;;;;13.75;3.63;;;;;;;9.62;70.44;102451.03;4997991;28;20038;-78
2021/03/29 06:28:43;;;;;;;11.57;3.55;;;;;;;9.55;70.91;102455.03;4979436;28;20042;-79
2021/03/29 06:31:29;;;;;;;12.93;3.80;;;;;;;9.55;71.36;102466.31;4996408;28;20412;-78
2021/03/29 06:33:55;;;;;;;13.00;3.70;;;;;;;9.57;71.34;102455.75;5013324;28;20503;-76
2021/03/29 06:36:38;;;;;;;11.70;3.33;;;;;;;9.58;71.09;102440.88;4984699;28;20077;-79
2021/03/29 06:39:11;;;;;;;9.57;3.33;;;;;;;9.78;69.78;102447.47;4999920;28;20054;-76
2021/03/29 06:41:38;;;;;;;12.90;3.50;;;;;;;9.81;69.46;102442.00;4993608;28;20096;-78
2021/03/29 06:44:03;;;;;;;13.85;3.55;;;;;;;10.06;69.20;102442.06;4958368;28;20086;-77
2021/03/29 06:46:30;;;;;;;13.18;3.55;;;;;;;10.15;68.68;102445.84;4989505;28;20053;-78
2021/03/29 06:48:59;;;;;;;11.13;3.17;;;;;;;10.24;69.11;102441.78;4992857;28;20045;-79
2021/03/29 06:51:32;;;;;;;10.57;3.00;;;;;;;10.36;68.69;102446.25;4996934;28;20074;-77
2021/03/29 06:54:05;;;;;;;15.18;3.40;;;;;;;10.49;66.74;102439.22;5005690;28;20046;-78
2021/03/29 06:56:42;;;;;;;13.27;3.70;;;;;;;10.42;67.86;102442.38;5008122;28;20384;-76
2021/03/29 06:59:24;;;;;;;15.98;3.80;;;;;;;10.47;68.30;102453.38;5000254;28;20500;-79
2021/03/29 07:01:52;;;;;;;14.40;3.10;;;;;;;10.53;68.77;102447.75;5005309;28;20097;-76
2021/03/29 07:04:22;;;;;;;16.23;3.25;;;;;;;10.64;67.88;102453.09;5003670;28;20068;-78
2021/03/29 07:06:48;;;;;;;10.98;3.08;;;;;;;10.79;66.20;102442.47;5003714;28;20054;-75
2021/03/29 07:09:15;;;;;;;14.38;3.33;;;;;;;10.93;67.33;102452.84;4977792;28;20053;-78
2021/03/29 07:11:42;;;;;;;10.60;3.35;;;;;;;10.99;66.19;102452.41;4999711;28;20045;-77
2021/03/29 07:14:08;;;;;;;12.75;3.22;;;;;;;10.93;66.85;102458.09;5001529;28;20056;-76
2021/03/29 07:16:34;;;;;;;13.35;3.20;;;;;;;10.89;67.24;102462.72;5014128;28;20041;-77
2021/03/29 07:19:04;;;;;;;12.30;3.10;;;;;;;10.86;68.06;102456.84;4991887;28;20056;-76
2021/03/29 07:21:30;;;;;;;17.60;3.08;;;;;;;10.93;68.17;102465.16;4995504;28;20045;-79
2021/03/29 07:24:10;;;;;;;15.13;3.58;;;;;;;10.98;66.44;102445.50;5028020;28;20133;-77
2021/03/29 07:26:45;;;;;;;11.60;3.58;;;;;;;11.09;67.28;102452.59;5010273;28;20050;-79
2021/03/29 07:29:27;;;;;;;14.77;3.30;;;;;;;11.15;65.61;102461.84;5016269;28;21491;-77
2021/03/29 07:31:57;;;;;;;12.00;3.28;;;;;;;11.12;65.10;102451.56;4992275;28;20049;-77
2021/03/29 07:34:43;;;;;;;13.40;3.42;;;;;;;11.09;66.48;102463.13;4993840;28;20688;-79
2021/03/29 07:37:26;;;;;;;13.05;3.83;;;;;;;11.29;66.23;102457.28;5008041;28;21408;-78
2021/03/29 07:39:52;;;;;;;12.68;3.60;;;;;;;11.35;65.88;102458.63;4993551;28;20049;-76
2021/03/29 07:42:24;;;;;;;14.85;3.38;;;;;;;11.37;65.95;102464.63;4975069;28;20041;-76
2021/03/29 07:45:02;;;;;;;12.02;3.40;;;;;;;11.29;64.72;102473.06;4991331;28;20528;-75
2021/03/29 07:47:55;;;;;;;13.80;3.70;;;;;;;11.26;65.47;102475.06;5005417;28;20077;-76
2021/03/29 07:50:24;;;;;;;18.40;3.50;;;;;;;11.47;65.48;102477.94;4990810;28;20501;-79
2021/03/29 07:52:52;;;;;;;15.05;3.85;;;;;;;11.55;64.52;102475.63;4982739;28;20060;-76
2021/03/29 07:55:19;;;;;;;15.30;3.63;;;;;;;11.52;65.08;102467.94;5000557;28;20042;-78
2021/03/29 07:57:44;;;;;;;11.80;3.75;;;;;;;11.52;65.04;102483.72;5008443;28;20041;-76
2021/03/29 08:00:22;;;;;;;17.25;4.25;;;;;;;11.55;65.47;102494.00;4989867;28;20572;-76
2021/03/29 08:02:49;;;;;;;16.45;3.80;;;;;;;11.53;65.36;102482.78;5006347;28;20124;-77
2021/03/29 08:05:15;;;;;;;11.23;3.83;;;;;;;11.65;64.90;102473.97;5009851;28;20042;-78
2021/03/29 08:07:47;;;;;;;10.23;3.45;;;;;;;11.80;66.19;102477.28;5008841;28;20053;-76
2021/03/29 08:10:15;;;;;;;15.82;4.25;;;;;;;11.94;64.46;102478.97;5013195;28;20052;-78
2021/03/29 08:12:59;;;;;;;13.63;3.42;;;;;;;11.96;64.59;102482.31;4993919;28;20045;-77
2021/03/29 08:16:07;;;;;;;12.55;3.50;;;;;;;12.05;65.83;102499.19;5004140;28;22402;-77
2021/03/29 08:19:10;;;;;;;11.18;3.35;;;;;;;11.96;63.90;102510.38;4994905;28;20049;-77
2021/03/29 08:21:56;;;;;;;14.32;3.30;;;;;;;11.83;65.61;102494.66;4995164;28;20522;-76
2021/03/29 08:24:39;;;;;;;14.75;4.13;;;;;;;11.85;65.20;102503.25;4994698;28;20053;-76
2021/03/29 08:27:06;;;;;;;12.07;2.78;;;;;;;11.76;66.03;102504.75;4994079;28;20123;-79
2021/03/29 08:29:42;;;;;;;13.88;3.53;;;;;;;11.82;66.23;102517.44;5010564;28;20042;-79
2021/03/29 08:32:10;;;;;;;14.65;4.22;;;;;;;11.84;65.38;102512.91;4999609;28;20578;-78
2021/03/29 08:35:09;;;;;;;11.60;3.75;;;;;;;11.79;66.27;102520.31;5011519;28;20419;-76
2021/03/29 08:37:40;;;;;;;11.82;3.75;;;;;;;11.72;65.86;102526.13;4988752;28;20045;-77
2021/03/29 08:40:08;;;;;;;9.98;3.35;;;;;;;11.66;66.28;102524.78;5022237;28;20505;-74
2021/03/29 08:42:34;;;;;;;15.48;3.80;;;;;;;11.60;66.37;102530.47;4989803;28;20786;-76
2021/03/29 08:45:04;;;;;;;13.00;3.45;;;;;;;11.57;66.24;102520.19;5011177;28;20046;-76
2021/03/29 08:47:30;;;;;;;15.90;3.75;;;;;;;11.65;66.24;102523.94;5009498;28;20042;-80
2021/03/29 08:50:01;;;;;;;11.45;3.95;;;;;;;11.70;67.32;102528.88;4994275;28;20134;-76
2021/03/29 08:52:39;;;;;;;9.02;3.78;;;;;;;11.84;65.80;102536.59;4980701;28;20042;-76
2021/03/29 08:55:06;;;;;;;10.40;3.83;;;;;;;11.90;65.49;102542.38;4989660;28;20046;-74
2021/03/29 08:57:32;;;;;;;16.05;3.58;;;;;;;11.83;66.77;102548.06;4999720;28;20681;-77
2021/03/29 09:00:06;;;;;;;10.95;3.38;;;;;;;11.90;64.93;102535.34;4975077;28;20052;-77
2021/03/29 09:02:32;;;;;;;14.70;3.70;;;;;;;11.98;66.53;102538.25;4994425;28;20054;-79
2021/03/29 09:04:59;;;;;;;10.65;4.10;;;;;;;12.18;66.05;102543.84;4981374;28;20107;-76
2021/03/29 09:07:42;;;;;;;12.18;3.28;;;;;;;12.32;65.78;102543.69;5001721;28;20068;-76
2021/03/29 09:10:23;;;;;;;9.60;3.70;;;;;;;12.37;64.83;102541.50;5005528;28;20037;-75
2021/03/29 09:12:56;;;;;;;14.50;3.63;;;;;;;12.32;64.95;102529.66;5011244;28;20073;-77
2021/03/29 09:15:22;;;;;;;;;;;;;;;12.16;64.68;102530.78;4997712;28;20420;-78
2021/03/29 09:17:59;;;;;;;15.02;3.83;;;;;;;12.16;65.16;102543.13;4993758;28;19921;-77
2021/03/29 09:20:33;;;;;;;15.23;4.28;;;;;;;12.28;64.53;102544.81;4990478;28;21020;-76
2021/03/29 09:22:59;;;;;;;12.43;3.53;;;;;;;12.39;65.16;102565.09;5026015;28;20053;-76
2021/03/29 09:25:38;;;;;;;16.75;3.97;;;;;;;12.53;64.98;102559.66;4993329;28;20069;-76
2021/03/29 09:28:09;;;;;;;12.05;3.42;;;;;;;12.65;64.85;102550.81;4992245;28;20046;-77
2021/03/29 09:30:35;;;;;;;15.93;4.15;;;;;;;12.69;63.47;102554.06;5016197;28;20411;-77
2021/03/29 09:33:01;;;;;;;11.75;3.80;;;;;;;12.78;63.32;102560.44;4978403;28;20054;-77
2021/03/29 09:35:29;;;;;;;11.35;3.70;;;;;;;12.77;65.01;102564.00;5024851;28;20104;-78
2021/03/29 09:37:54;;;;;;;10.05;3.55;;;;;;;13.03;64.05;102576.06;5001275;28;20049;-77
2021/03/29 09:40:20;;;;;;;10.82;4.05;;;;;;;13.13;63.39;102575.31;5000136;28;20049;-77
2021/03/29 09:42:53;;;;;;;11.23;3.78;;;;;;;13.21;63.69;102575.56;4960955;28;20045;-77
2021/03/29 09:45:24;;;;;;;11.77;4.00;;;;;;;13.48;62.06;102569.97;5000736;28;20471;-77
2021/03/29 09:48:08;;;;;;;11.85;3.65;;;;;;;13.65;62.52;102576.53;5008971;28;20065;-77
2021/03/29 09:50:37;;;;;;;11.25;3.55;;;;;;;13.65;61.66;102581.81;4989519;28;20116;-76
2021/03/29 09:53:22;;;;;;;9.93;3.58;;;;;;;14.16;60.72;102590.94;4999007;28;557531;-79
2021/03/29 09:55:55;;;;;;;17.92;3.88;;;;;;;14.34;60.09;102589.44;5000668;28;20042;-80
2021/03/29 09:58:23;;;;;;;12.93;3.75;;;;;;;14.47;58.61;102591.91;4994804;28;20074;-79
2021/03/29 10:00:51;;;;;;;13.45;3.47;;;;;;;14.32;59.92;102596.66;4981022;28;20038;-81
2021/03/29 10:03:18;;;;;;;14.25;3.47;;;;;;;14.28;59.33;102592.59;4990160;28;20057;-77
2021/03/29 10:05:45;;;;;;;12.40;3.50;;;;;;;14.29;60.58;102588.13;5021628;28;20064;-78
2021/03/29 10:08:11;;;;;;;12.27;3.45;;;;;;;14.35;60.57;102584.97;5009728;28;20050;-77
2021/03/29 10:10:37;;;;;;;10.45;3.35;;;;;;;14.15;59.91;102589.28;5023124;28;20038;-79
2021/03/29 10:13:09;;;;;;;11.35;4.20;;;;;;;14.13;61.26;102576.19;4993055;28;20042;-77
2021/03/29 10:15:36;;;;;;;;;;;;;;;14.26;61.22;102605.06;5009053;28;20038;-77
2021/03/29 10:18:12;;;;;;;13.07;3.55;;;;;;;14.62;61.24;102588.97;4992612;28;19922;-77
2021/03/29 10:20:41;;;;;;;8.02;3.40;;;;;;;14.82;58.54;102589.94;4999679;28;20038;-77
2021/03/29 10:23:24;;;;;;;11.48;4.00;;;;;;;14.82;60.45;102596.06;5003191;28;20102;-78
2021/03/29 10:26:18;;;;;;;11.02;4.00;;;;;;;14.85;58.16;102600.28;5019157;28;20073;-77
2021/03/29 10:28:52;;;;;;;9.93;3.50;;;;;;;15.22;60.53;102587.41;5012747;28;20112;-77
2021/03/29 10:31:18;;;;;;;11.98;3.45;;;;;;;15.55;59.90;102585.44;5016564;28;20525;-76
2021/03/29 10:33:43;;;;;;;16.08;3.78;;;;;;;15.73;57.50;102585.63;5002617;28;20070;-77
2021/03/29 10:36:15;;;;;;;10.00;3.40;;;;;;;15.81;56.18;102588.47;5000930;28;20065;-77
2021/03/29 10:38:42;;;;;;;9.45;3.65;;;;;;;15.61;56.70;102595.47;4987551;28;20932;-77
2021/03/29 10:41:07;;;;;;;10.98;3.03;;;;;;;15.64;58.07;102595.19;5013976;28;20475;-75
2021/03/29 10:43:33;;;;;;;10.80;3.55;;;;;;;15.48;57.12;102589.56;5002285;28;20034;-75
2021/03/29 10:45:59;;;;;;;8.93;3.28;;;;;;;15.71;58.52;102601.63;5019751;28;20054;-77
2021/03/29 10:48:24;;;;;;;16.88;4.20;;;;;;;15.64;57.53;102603.13;5008648;28;20132;-77
2021/03/29 10:50:50;;;;;;;11.18;3.50;;;;;;;15.69;57.48;102597.44;4990982;28;20045;-78
2021/03/29 10:53:16;;;;;;;10.00;3.60;;;;;;;15.78;57.47;102591.38;4959496;28;20504;-77
2021/03/29 10:55:41;;;;;;;13.10;3.72;;;;;;;15.77;56.51;102593.19;5007045;28;20048;-79
2021/03/29 10:58:15;;;;;;;9.43;3.53;;;;;;;15.87;57.81;102600.31;5008320;28;20422;-77
2021/03/29 11:00:40;;;;;;;9.18;3.47;;;;;;;15.83;57.65;102583.88;4974229;28;20041;-77
2021/03/29 11:03:06;;;;;;;13.75;3.65;;;;;;;15.80;56.91;102576.19;4991814;28;20069;-77
2021/03/29 11:05:32;;;;;;;13.27;3.60;;;;;;;15.90;58.72;102582.34;4971962;28;20045;-78
2021/03/29 11:07:57;;;;;;;9.98;3.55;;;;;;;15.83;56.72;102583.88;4995595;28;20046;-78
2021/03/29 11:10:23;;;;;;;12.57;3.60;;;;;;;15.87;57.17;102582.63;4995001;28;20067;-76
2021/03/29 11:12:48;;;;;;;10.93;3.58;;;;;;;16.06;56.76;102584.44;5000896;28;20056;-78
2021/03/29 11:15:14;;;;;;;8.88;3.40;;;;;;;16.28;57.25;102588.66;5008871;28;20045;-78
2021/03/29 11:17:40;;;;;;;9.48;3.70;;;;;;;16.55;54.92;102587.09;4990979;28;20046;-77
2021/03/29 11:20:08;;;;;;;10.20;3.60;;;;;;;16.54;56.97;102593.41;4991339;28;20048;-77
2021/03/29 11:22:34;;;;;;;10.00;3.90;;;;;;;16.73;57.32;102592.53;4972157;28;20567;-79
2021/03/29 11:24:59;;;;;;;11.35;3.40;;;;;;;16.70;56.47;102590.97;4995743;28;20064;-79
2021/03/29 11:27:25;;;;;;;8.30;3.30;;;;;;;16.61;56.03;102599.78;4981612;28;20407;-77
2021/03/29 11:29:51;;;;;;;10.57;3.83;;;;;;;16.70;56.68;102598.09;4978680;28;20072;-79
2021/03/29 11:32:17;;;;;;;10.63;3.38;;;;;;;16.84;55.64;102599.50;4996044;28;20041;-77
2021/03/29 11:34:43;;;;;;;7.63;3.15;;;;;;;17.22;56.32;102595.09;5008160;28;20068;-76
2021/03/29 11:37:09;;;;;;;13.00;3.50;;;;;;;17.46;54.19;102605.16;4998053;28;20512;-78